createdAt,value
2022-10-23T00:01:27.331Z,5.63
2022-10-23T00:03:58.800Z,5.17
2022-10-23T00:06:28.639Z,5.30
2022-10-23T00:08:58.352Z,4.80
2022-10-23T00:11:29.109Z,5.53
2022-10-23T00:13:59.495Z,5.80
2022-10-23T00:16:28.726Z,5.77
2022-10-23T00:18:57.101Z,4.27
2022-10-23T00:21:26.032Z,4.90
2022-10-23T00:23:54.847Z,4.50
2022-10-23T00:26:24.821Z,5.53
2022-10-23T00:28:54.674Z,4.63
2022-10-23T00:31:29.143Z,5.47
2022-10-23T00:33:57.855Z,5.73
2022-10-23T00:36:26.326Z,5.63
2022-10-23T00:38:55.131Z,5.43
2022-10-23T00:41:28.836Z,4.80
2022-10-23T00:44:00.878Z,5.53
2022-10-23T00:46:29.371Z,4.53
2022-10-23T00:48:58.748Z,5.77
2022-10-23T00:51:30.261Z,6.07
2022-10-23T00:54:22.845Z,5.93
2022-10-23T00:56:53.802Z,5.90
2022-10-23T00:59:22.220Z,6.30
2022-10-23T01:01:50.929Z,5.50
2022-10-23T01:04:20.169Z,6.67
2022-10-23T01:06:57.131Z,5.73
2022-10-23T01:09:32.941Z,7.20
2022-10-23T01:12:16.628Z,6.03
2022-10-23T01:15:08.323Z,6.27
2022-10-23T01:17:42.474Z,6.30
2022-10-23T01:20:25.422Z,6.00
2022-10-23T01:23:13.719Z,5.90
2022-10-23T01:26:10.064Z,5.50
2022-10-23T01:28:46.001Z,6.37
2022-10-23T01:31:19.108Z,7.30
2022-10-23T01:33:53.460Z,7.17
2022-10-23T01:36:31.685Z,6.73
2022-10-23T01:39:06.357Z,6.37
2022-10-23T01:41:40.576Z,7.13
2022-10-23T01:44:15.903Z,8.47
2022-10-23T01:46:48.440Z,7.97
2022-10-23T01:49:18.976Z,7.93
2022-10-23T01:51:55.289Z,7.17
2022-10-23T01:54:26.924Z,8.77
2022-10-23T01:56:56.519Z,8.43
2022-10-23T01:59:35.887Z,8.50
2022-10-23T02:02:07.940Z,8.53
2022-10-23T02:04:41.081Z,9.43
2022-10-23T02:07:09.871Z,9.07
2022-10-23T02:09:38.716Z,11.07
2022-10-23T02:12:10.158Z,9.30
2022-10-23T02:14:49.773Z,9.47
2022-10-23T02:17:28.967Z,9.47
2022-10-23T02:20:03.901Z,9.57
2022-10-23T02:22:39.993Z,9.40
2022-10-23T02:25:15.052Z,8.97
2022-10-23T02:27:48.330Z,9.87
2022-10-23T02:30:21.303Z,9.20
2022-10-23T02:32:58.193Z,8.63
2022-10-23T02:35:27.566Z,9.43
2022-10-23T02:38:05.349Z,9.77
2022-10-23T02:40:40.017Z,9.13
2022-10-23T02:43:15.189Z,9.37
2022-10-23T02:45:55.260Z,9.00
2022-10-23T02:48:28.283Z,8.07
2022-10-23T02:51:07.417Z,9.03
2022-10-23T02:53:44.758Z,9.10
2022-10-23T02:56:21.382Z,9.20
2022-10-23T02:58:57.312Z,9.00
2022-10-23T03:01:34.265Z,8.77
2022-10-23T03:04:06.654Z,8.83
2022-10-23T03:06:35.584Z,9.17
2022-10-23T03:09:06.585Z,8.20
2022-10-23T03:11:35.040Z,8.40
2022-10-23T03:14:04.239Z,8.20
2022-10-23T03:16:33.982Z,9.10
2022-10-23T03:19:02.706Z,8.90
2022-10-23T03:21:31.769Z,7.93
2022-10-23T03:24:00.036Z,8.73
2022-10-23T03:26:38.437Z,8.90
2022-10-23T03:29:07.019Z,10.23
2022-10-23T03:31:43.426Z,9.53
2022-10-23T03:34:11.919Z,8.73
2022-10-23T03:36:42.819Z,8.53
2022-10-23T03:39:12.217Z,9.60
2022-10-23T03:41:40.567Z,8.20
2022-10-23T03:44:09.263Z,9.43
2022-10-23T03:46:37.627Z,8.80
2022-10-23T03:49:07.635Z,8.30
2022-10-23T03:51:36.024Z,8.20
2022-10-23T03:54:05.544Z,8.53
2022-10-23T03:56:33.936Z,7.37
2022-10-23T03:59:02.635Z,9.17
2022-10-23T04:01:31.258Z,8.67
2022-10-23T04:03:59.780Z,7.63
2022-10-23T04:06:29.983Z,9.07
2022-10-23T04:09:00.919Z,8.17
2022-10-23T04:11:29.490Z,8.17
2022-10-23T04:13:58.078Z,7.77
2022-10-23T04:16:27.375Z,8.47
2022-10-23T04:18:55.770Z,8.17
2022-10-23T04:21:24.387Z,7.83
2022-10-23T04:23:57.763Z,7.87
2022-10-23T04:26:26.246Z,7.90
2022-10-23T04:28:54.605Z,7.53
2022-10-23T04:31:22.821Z,7.60
2022-10-23T04:33:51.129Z,7.73
2022-10-23T04:36:33.125Z,7.90
2022-10-23T04:39:12.144Z,7.03
2022-10-23T04:41:40.564Z,7.43
2022-10-23T04:44:09.463Z,6.27
2022-10-23T04:46:40.203Z,7.30
2022-10-23T04:49:08.619Z,6.90
2022-10-23T04:52:12.393Z,7.57
2022-10-23T04:55:00.521Z,7.77
2022-10-23T04:57:33.390Z,7.13
2022-10-23T05:00:07.445Z,7.37
2022-10-23T05:03:05.372Z,6.70
2022-10-23T05:05:38.795Z,7.00
2022-10-23T05:08:22.862Z,6.83
2022-10-23T05:11:11.568Z,6.23
2022-10-23T05:13:44.928Z,7.03
2022-10-23T05:16:21.492Z,6.83
2022-10-23T05:18:50.508Z,6.67
2022-10-23T05:21:25.971Z,5.77
2022-10-23T05:23:55.246Z,5.80
2022-10-23T05:26:26.160Z,5.77
2022-10-23T05:28:55.004Z,5.90
2022-10-23T05:31:25.763Z,6.27
2022-10-23T05:33:58.096Z,6.07
2022-10-23T05:36:27.928Z,6.30
2022-10-23T05:38:59.123Z,5.50
2022-10-23T05:41:29.516Z,6.10
2022-10-23T05:44:00.229Z,5.77
2022-10-23T05:46:47.253Z,5.70
2022-10-23T05:49:48.011Z,5.73
2022-10-23T05:52:30.484Z,5.17
2022-10-23T05:55:14.012Z,6.13
2022-10-23T05:58:23.675Z,5.63
2022-10-23T06:01:07.619Z,5.33
2022-10-23T06:04:12.402Z,5.63
2022-10-23T06:07:07.099Z,5.53
2022-10-23T06:09:35.643Z,5.70
2022-10-23T06:12:04.212Z,4.80
2022-10-23T06:14:35.257Z,5.40
2022-10-23T06:17:04.152Z,5.80
2022-10-23T06:19:35.854Z,5.10
2022-10-23T06:22:05.941Z,5.10
2022-10-23T06:24:48.133Z,4.97
2022-10-23T06:27:21.870Z,5.10
2022-10-23T06:29:52.057Z,5.10
2022-10-23T06:32:21.227Z,4.93
2022-10-23T06:35:02.621Z,4.40
2022-10-23T06:37:31.043Z,5.10
2022-10-23T06:40:10.937Z,5.17
2022-10-23T06:42:53.256Z,4.80
2022-10-23T06:45:41.921Z,4.87
2022-10-23T06:48:16.687Z,4.83
2022-10-23T06:50:45.096Z,4.70
2022-10-23T06:53:17.037Z,4.43
2022-10-23T06:55:54.487Z,5.03
2022-10-23T06:58:24.215Z,4.60
2022-10-23T07:01:16.585Z,4.20
2022-10-23T07:03:46.367Z,4.40
2022-10-23T07:06:16.393Z,4.77
2022-10-23T07:08:44.861Z,4.10
2022-10-23T07:11:36.435Z,3.90
2022-10-23T07:14:05.000Z,4.60
2022-10-23T07:16:35.360Z,3.87
2022-10-23T07:19:04.104Z,4.57
2022-10-23T07:21:48.415Z,4.37
2022-10-23T07:24:38.579Z,3.93
2022-10-23T07:27:16.149Z,4.00
2022-10-23T07:29:45.348Z,3.33
2022-10-23T07:32:15.197Z,3.80
2022-10-23T07:34:46.726Z,3.73
2022-10-23T07:37:22.878Z,4.10
2022-10-23T07:39:52.285Z,3.83
2022-10-23T07:42:20.774Z,3.90
2022-10-23T07:44:49.649Z,3.83
2022-10-23T07:47:19.690Z,3.70
2022-10-23T07:49:51.876Z,4.10
2022-10-23T07:52:22.364Z,4.20
2022-10-23T07:55:09.902Z,3.40
2022-10-23T07:57:41.091Z,3.57
2022-10-23T08:00:32.585Z,2.80
2022-10-23T08:03:13.566Z,3.30
2022-10-23T08:05:42.522Z,3.60
2022-10-23T08:08:11.775Z,3.47
2022-10-23T08:10:42.255Z,2.80
2022-10-23T08:13:16.031Z,3.13
2022-10-23T08:15:56.170Z,3.33
2022-10-23T08:18:52.651Z,2.57
2022-10-23T08:21:21.517Z,2.80
2022-10-23T08:23:54.529Z,2.90
2022-10-23T08:26:24.656Z,2.93
2022-10-23T08:28:53.737Z,3.43
2022-10-23T08:31:24.711Z,3.20
2022-10-23T08:34:24.346Z,2.60
2022-10-23T08:36:54.452Z,2.80
2022-10-23T08:39:23.194Z,2.83
2022-10-23T08:42:22.492Z,2.90
2022-10-23T08:45:07.601Z,3.00
2022-10-23T08:47:43.526Z,2.73
2022-10-23T08:50:37.759Z,2.87
2022-10-23T08:53:16.697Z,2.90
2022-10-23T08:55:48.319Z,2.37
2022-10-23T08:58:21.345Z,2.57
2022-10-23T09:00:51.517Z,3.07
2022-10-23T09:03:20.160Z,2.80
2022-10-23T09:06:13.385Z,2.40
2022-10-23T09:08:55.084Z,2.73
2022-10-23T09:11:30.216Z,4.40
2022-10-23T09:14:21.802Z,2.63
2022-10-23T09:17:01.620Z,3.27
2022-10-23T09:19:32.200Z,2.73
2022-10-23T09:22:02.449Z,2.67
2022-10-23T09:24:31.843Z,3.43
2022-10-23T09:27:01.776Z,3.10
2022-10-23T09:29:33.127Z,2.77
2022-10-23T09:32:04.496Z,2.70
2022-10-23T09:34:35.149Z,2.77
2022-10-23T09:37:19.436Z,2.70
2022-10-23T09:39:49.608Z,2.50
2022-10-23T09:42:24.357Z,3.37
2022-10-23T09:44:55.331Z,2.80
2022-10-23T09:47:25.918Z,2.27
2022-10-23T09:49:56.510Z,2.50
2022-10-23T09:52:33.871Z,2.50
2022-10-23T09:55:04.868Z,2.87
2022-10-23T09:57:37.220Z,3.40
2022-10-23T10:00:17.195Z,2.90
2022-10-23T10:02:57.460Z,2.97
2022-10-23T10:05:57.761Z,2.63
2022-10-23T10:08:36.680Z,2.63
2022-10-23T10:11:11.796Z,2.67
2022-10-23T10:14:19.218Z,2.23
2022-10-23T10:16:53.198Z,2.40
2022-10-23T10:19:37.563Z,2.80
2022-10-23T10:22:17.588Z,2.53
2022-10-23T10:24:55.365Z,2.67
2022-10-23T10:27:38.971Z,2.40
2022-10-23T10:30:14.309Z,2.57
2022-10-23T10:32:48.491Z,2.03
2022-10-23T10:35:27.166Z,1.90
2022-10-23T10:38:26.518Z,2.00
2022-10-23T10:41:15.650Z,2.40
2022-10-23T10:43:52.794Z,2.33
2022-10-23T10:46:32.614Z,2.57
2022-10-23T10:49:03.107Z,2.37
2022-10-23T10:52:02.646Z,2.43
2022-10-23T10:54:45.292Z,2.20
2022-10-23T10:57:23.319Z,2.43
2022-10-23T10:59:54.743Z,2.70
2022-10-23T11:02:28.962Z,2.67
2022-10-23T11:05:04.744Z,2.60
2022-10-23T11:07:39.425Z,2.50
2022-10-23T11:10:17.608Z,2.63
2022-10-23T11:12:48.765Z,2.33
2022-10-23T11:15:20.649Z,2.63
2022-10-23T11:17:52.509Z,3.07
2022-10-23T11:20:43.128Z,2.10
2022-10-23T11:23:31.763Z,3.00
2022-10-23T11:26:19.787Z,2.20
2022-10-23T11:29:25.625Z,2.47
2022-10-23T11:32:08.270Z,2.60
2022-10-23T11:35:07.101Z,2.20
2022-10-23T11:37:35.818Z,3.33
2022-10-23T11:40:22.685Z,3.17
2022-10-23T11:42:52.293Z,2.60
2022-10-23T11:45:31.385Z,2.70
2022-10-23T11:48:01.174Z,3.10
2022-10-23T11:50:35.809Z,3.00
2022-10-23T11:53:15.155Z,2.67
2022-10-23T11:56:02.386Z,2.70
2022-10-23T11:58:43.060Z,2.60
2022-10-23T12:01:29.193Z,2.40
2022-10-23T12:04:04.033Z,2.43
2022-10-23T12:06:40.513Z,3.03
2022-10-23T12:09:25.309Z,2.03
2022-10-23T12:12:06.868Z,2.30
2022-10-23T12:14:37.806Z,2.23
2022-10-23T12:17:31.678Z,2.03
2022-10-23T12:20:19.935Z,2.43
2022-10-23T12:23:00.471Z,2.83
2022-10-23T12:25:38.972Z,2.80
2022-10-23T12:28:16.695Z,2.37
2022-10-23T12:33:33.278Z,2.57
2022-10-23T12:36:19.775Z,2.67
2022-10-23T12:38:49.860Z,2.40
2022-10-23T12:41:21.693Z,2.47
2022-10-23T12:43:54.737Z,1.97
2022-10-23T12:46:32.840Z,2.77
2022-10-23T12:49:05.224Z,2.90
2022-10-23T12:51:36.267Z,1.90
2022-10-23T12:54:20.351Z,2.03
2022-10-23T12:56:49.996Z,2.60
2022-10-23T12:59:21.718Z,2.53
2022-10-23T13:01:52.778Z,2.57
2022-10-23T13:04:32.713Z,2.73
2022-10-23T13:07:03.164Z,1.83
2022-10-23T13:09:36.602Z,2.00
2022-10-23T13:12:24.464Z,2.60
2022-10-23T13:14:59.030Z,2.47
2022-10-23T13:17:36.692Z,2.57
2022-10-23T13:20:28.205Z,2.50
2022-10-23T13:23:03.131Z,2.47
2022-10-23T13:25:33.365Z,2.37
2022-10-23T13:28:26.967Z,2.70
2022-10-23T13:31:24.503Z,2.77
2022-10-23T13:34:05.379Z,2.57
2022-10-23T13:36:37.627Z,2.23
2022-10-23T13:39:16.136Z,3.20
2022-10-23T13:41:46.563Z,2.67
2022-10-23T13:44:17.199Z,2.77
2022-10-23T13:46:45.951Z,2.40
2022-10-23T13:49:14.363Z,3.00
2022-10-23T13:51:48.756Z,2.53
2022-10-23T13:54:20.296Z,2.53
2022-10-23T13:56:49.670Z,2.90
2022-10-23T13:59:18.586Z,2.67
2022-10-23T14:01:48.775Z,2.47
2022-10-23T14:04:19.524Z,2.70
2022-10-23T14:06:49.463Z,2.40
2022-10-23T14:09:19.743Z,2.73
2022-10-23T14:11:48.293Z,2.40
2022-10-23T14:14:16.963Z,2.80
2022-10-23T14:16:45.846Z,2.93
2022-10-23T14:19:14.291Z,2.87
2022-10-23T14:21:42.702Z,2.80
2022-10-23T14:24:12.467Z,2.63
2022-10-23T14:26:41.238Z,2.63
2022-10-23T14:29:18.387Z,2.30
2022-10-23T14:31:49.978Z,2.77
2022-10-23T14:34:18.886Z,2.90
2022-10-23T14:37:03.510Z,2.63
2022-10-23T14:39:40.000Z,2.90
2022-10-23T14:42:08.665Z,2.93
2022-10-23T14:47:11.303Z,3.00
2022-10-23T14:49:41.365Z,3.03
2022-10-23T14:52:11.820Z,3.07
2022-10-23T14:54:41.895Z,2.93
2022-10-23T14:57:12.272Z,2.47
2022-10-23T14:59:40.714Z,3.70
2022-10-23T15:02:11.576Z,3.53
2022-10-23T15:04:40.194Z,2.97
2022-10-23T15:07:08.715Z,3.23
2022-10-23T15:09:37.512Z,2.90
2022-10-23T15:12:08.430Z,3.50
2022-10-23T15:14:37.109Z,3.70
2022-10-23T15:17:05.756Z,3.23
2022-10-23T15:19:34.323Z,3.20
2022-10-23T15:22:03.005Z,2.93
2022-10-23T15:24:31.764Z,3.23
2022-10-23T15:27:00.509Z,2.97
2022-10-23T15:29:31.216Z,3.17
2022-10-23T15:32:00.383Z,3.50
2022-10-23T15:34:30.609Z,3.17
2022-10-23T15:36:59.744Z,3.20
2022-10-23T15:39:33.787Z,3.40
2022-10-23T15:42:04.220Z,3.30
2022-10-23T15:44:34.959Z,3.10
2022-10-23T15:47:03.510Z,2.90
2022-10-23T15:49:31.970Z,3.27
2022-10-23T15:52:00.771Z,3.03
2022-10-23T15:54:32.026Z,3.03
2022-10-23T15:57:02.649Z,3.20
2022-10-23T15:59:33.826Z,3.33
2022-10-23T16:02:02.258Z,3.27
2022-10-23T16:04:31.382Z,3.80
2022-10-23T16:07:00.000Z,3.17
2022-10-23T16:09:28.415Z,3.63
2022-10-23T16:11:56.916Z,3.83
2022-10-23T16:14:25.625Z,3.17
2022-10-23T16:16:55.485Z,3.23
2022-10-23T16:19:23.938Z,3.33
2022-10-23T16:21:52.430Z,3.27
2022-10-23T16:24:20.819Z,3.77
2022-10-23T16:26:53.365Z,4.20
2022-10-23T16:29:22.197Z,3.47
2022-10-23T16:31:50.665Z,3.40
2022-10-23T16:34:21.530Z,4.03
2022-10-23T16:36:50.399Z,4.03
2022-10-23T16:39:21.925Z,3.57
2022-10-23T16:42:09.299Z,3.50
2022-10-23T16:44:59.873Z,3.70
2022-10-23T16:47:28.447Z,4.10
2022-10-23T16:49:58.231Z,3.70
2022-10-23T16:52:27.010Z,3.77
2022-10-23T16:54:55.541Z,3.87
2022-10-23T16:57:24.040Z,3.83
2022-10-23T16:59:52.496Z,3.80
2022-10-23T17:02:21.208Z,4.20
2022-10-23T17:04:49.691Z,4.00
2022-10-23T17:07:19.705Z,4.57
2022-10-23T17:09:48.357Z,4.00
2022-10-23T17:12:17.850Z,4.57
2022-10-23T17:14:46.602Z,4.13
2022-10-23T17:17:14.938Z,4.87
2022-10-23T17:19:45.217Z,4.97
2022-10-23T17:22:15.562Z,4.93
2022-10-23T17:24:48.748Z,5.80
2022-10-23T17:27:20.290Z,4.57
2022-10-23T17:29:48.891Z,4.43
2022-10-23T17:32:17.397Z,4.47
2022-10-23T17:34:46.727Z,4.70
2022-10-23T17:37:15.485Z,4.77
2022-10-23T17:39:45.245Z,4.80
2022-10-23T17:42:13.749Z,4.60
2022-10-23T17:44:42.165Z,4.40
2022-10-23T17:47:10.590Z,4.60
2022-10-23T17:49:41.581Z,4.80
2022-10-23T17:52:15.039Z,4.27
2022-10-23T17:54:45.465Z,4.87
2022-10-23T17:57:14.320Z,4.67
2022-10-23T17:59:42.713Z,4.53
2022-10-23T18:02:13.200Z,4.00
2022-10-23T18:04:41.681Z,4.93
2022-10-23T18:07:10.191Z,3.93
2022-10-23T18:09:38.582Z,4.00
2022-10-23T18:12:08.760Z,4.63
2022-10-23T18:14:37.841Z,4.27
2022-10-23T18:17:06.192Z,4.63
2022-10-23T18:19:34.683Z,4.67
2022-10-23T18:22:03.477Z,4.63
2022-10-23T18:24:32.443Z,4.60
2022-10-23T18:27:01.077Z,4.50
2022-10-23T18:29:31.094Z,4.80
2022-10-23T18:32:00.443Z,4.37
2022-10-23T18:34:28.808Z,3.70
2022-10-23T18:36:57.208Z,4.70
2022-10-23T18:39:27.019Z,4.40
2022-10-23T18:41:59.689Z,3.87
2022-10-23T18:44:30.177Z,3.83
2022-10-23T18:47:00.298Z,3.90
2022-10-23T18:49:29.736Z,3.63
2022-10-23T18:51:59.186Z,4.40
2022-10-23T18:54:27.756Z,4.60
2022-10-23T18:56:56.224Z,5.70
2022-10-23T18:59:24.855Z,6.53
2022-10-23T19:01:54.981Z,8.27
2022-10-23T19:04:23.710Z,7.03
2022-10-23T19:06:52.700Z,7.47
2022-10-23T19:09:21.765Z,8.70
2022-10-23T19:11:50.282Z,11.17
2022-10-23T19:14:18.964Z,11.77
2022-10-23T19:16:58.803Z,13.27
2022-10-23T19:19:29.690Z,13.83
2022-10-23T19:21:58.707Z,15.10
2022-10-23T19:24:33.752Z,14.83
2022-10-23T19:27:03.626Z,14.20
2022-10-23T19:29:33.130Z,12.47
2022-10-23T19:32:03.267Z,11.40
2022-10-23T19:34:32.163Z,10.73
2022-10-23T19:37:00.727Z,10.13
2022-10-23T19:39:30.382Z,9.33
2022-10-23T19:41:59.300Z,9.03
2022-10-23T19:44:28.024Z,9.63
2022-10-23T19:46:59.430Z,9.30
2022-10-23T19:49:29.466Z,9.10
2022-10-23T19:51:58.226Z,8.80
2022-10-23T19:54:27.042Z,7.97
2022-10-23T19:56:56.887Z,8.60
2022-10-23T19:59:25.323Z,8.23
2022-10-23T20:01:53.771Z,7.60
2022-10-23T20:04:22.543Z,5.97
2022-10-23T20:06:52.505Z,6.03
2022-10-23T20:09:21.121Z,6.00
2022-10-23T20:11:50.784Z,6.93
2022-10-23T20:14:20.492Z,5.57
2022-10-23T20:16:53.456Z,5.50
2022-10-23T20:19:24.330Z,5.90
2022-10-23T20:21:54.229Z,5.07
2022-10-23T20:24:23.547Z,5.53
2022-10-23T20:26:54.494Z,4.17
2022-10-23T20:29:24.726Z,4.17
2022-10-23T20:31:53.861Z,4.03
2022-10-23T20:34:22.509Z,3.67
2022-10-23T20:36:51.155Z,3.50
2022-10-23T20:39:25.526Z,3.17
2022-10-23T20:41:55.802Z,3.20
2022-10-23T20:44:25.221Z,3.30
2022-10-23T20:46:54.035Z,3.03
2022-10-23T20:49:23.666Z,3.13
2022-10-23T20:51:55.160Z,2.90
2022-10-23T20:54:26.962Z,3.60
2022-10-23T20:56:57.057Z,3.10
2022-10-23T20:59:26.188Z,2.80
2022-10-23T21:01:56.531Z,2.73
2022-10-23T21:04:27.655Z,3.00
2022-10-23T21:07:14.099Z,2.47
2022-10-23T21:09:44.122Z,3.40
2022-10-23T21:12:12.685Z,3.30
2022-10-23T21:14:41.241Z,2.87
2022-10-23T21:17:12.156Z,2.97
2022-10-23T21:19:40.879Z,3.37
2022-10-23T21:22:09.405Z,3.30
2022-10-23T21:24:37.783Z,3.07
2022-10-23T21:27:07.639Z,3.10
2022-10-23T21:29:36.023Z,3.33
2022-10-23T21:32:04.936Z,3.13
2022-10-23T21:34:33.700Z,3.50
2022-10-23T21:37:13.328Z,2.97
2022-10-23T21:39:42.613Z,3.27
2022-10-23T21:42:13.634Z,3.50
2022-10-23T21:44:42.027Z,3.83
2022-10-23T21:47:10.597Z,3.80
2022-10-23T21:49:39.296Z,3.40
2022-10-23T21:52:07.960Z,3.73
2022-10-23T21:54:36.330Z,3.87
2022-10-23T21:57:05.114Z,3.40
2022-10-23T21:59:36.009Z,3.70
2022-10-23T22:02:12.517Z,3.53
2022-10-23T22:04:41.331Z,3.43
2022-10-23T22:07:10.995Z,3.40
2022-10-23T22:09:39.769Z,3.23
2022-10-23T22:12:10.382Z,3.97
2022-10-23T22:14:40.841Z,3.93
2022-10-23T22:17:09.409Z,3.43
2022-10-23T22:19:38.112Z,3.83
2022-10-23T22:22:06.995Z,3.30
2022-10-23T22:24:37.329Z,3.03
2022-10-23T22:27:06.073Z,3.17
2022-10-23T22:29:37.681Z,2.53
2022-10-23T22:32:07.969Z,3.07
2022-10-23T22:37:25.098Z,3.13
2022-10-23T22:39:54.290Z,3.23
2022-10-23T22:42:23.026Z,3.87
2022-10-23T22:44:51.383Z,3.30
2022-10-23T22:47:21.197Z,3.63
2022-10-23T22:49:49.570Z,3.33
2022-10-23T22:52:18.000Z,4.07
2022-10-23T22:54:46.449Z,3.60
2022-10-23T22:57:14.957Z,3.90
2022-10-23T22:59:43.466Z,3.43
2022-10-23T23:02:11.808Z,3.20
2022-10-23T23:04:41.527Z,4.03
2022-10-23T23:07:11.536Z,3.67
2022-10-23T23:09:40.716Z,3.40
2022-10-23T23:12:11.749Z,3.80
2022-10-23T23:14:41.394Z,3.70
2022-10-23T23:17:10.663Z,3.27
2022-10-23T23:19:39.891Z,3.30
2022-10-23T23:22:09.814Z,3.40
2022-10-23T23:24:38.594Z,3.67
2022-10-23T23:27:06.965Z,3.73
2022-10-23T23:29:35.659Z,3.67
2022-10-23T23:32:06.485Z,3.33
2022-10-23T23:34:35.115Z,3.20
2022-10-23T23:37:03.615Z,3.60
2022-10-23T23:39:33.492Z,3.80
2022-10-23T23:42:02.216Z,3.60
2022-10-23T23:44:30.718Z,3.70
2022-10-23T23:46:59.200Z,3.80
2022-10-23T23:49:27.961Z,3.43
2022-10-23T23:51:56.422Z,3.10
2022-10-23T23:54:24.823Z,2.93
2022-10-23T23:56:57.368Z,3.30
2022-10-23T23:59:25.809Z,2.90
